createdAt,value
2019-02-09T00:01:55.068Z,95.96
2019-02-09T00:04:24.958Z,96.77
2019-02-09T00:06:54.912Z,97.16
2019-02-09T00:09:25.669Z,97.50
2019-02-09T00:11:56.439Z,97.62
2019-02-09T00:14:26.981Z,97.35
2019-02-09T00:16:56.910Z,95.83
2019-02-09T00:19:26.824Z,92.34
2019-02-09T00:21:56.751Z,86.64
2019-02-09T00:24:26.676Z,83.38
2019-02-09T00:26:56.613Z,81.48
2019-02-09T00:29:27.390Z,81.18
2019-02-09T00:31:57.306Z,81.78
2019-02-09T00:34:28.120Z,81.96
2019-02-09T00:36:58.073Z,83.71
2019-02-09T00:45:35.379Z,93.56
2019-02-09T00:48:05.460Z,97.58
2019-02-09T00:50:35.910Z,97.74
2019-02-09T01:04:23.791Z,97.00
2019-02-09T01:06:53.801Z,97.52
2019-02-09T01:26:09.267Z,98.71
2019-02-09T01:28:39.197Z,99.10
2019-02-09T01:31:09.372Z,98.27
2019-02-09T01:37:12.512Z,97.67
2019-02-09T01:39:42.550Z,98.94
2019-02-09T01:42:12.735Z,99.67
2019-02-09T01:44:42.663Z,99.81
2019-02-09T01:47:12.601Z,100.00
2019-02-09T01:53:33.606Z,100.00
2019-02-09T02:13:31.266Z,92.63
2019-02-09T02:16:01.488Z,91.70
2019-02-09T02:22:50.941Z,90.70
2019-02-09T02:25:21.070Z,90.08
2019-02-09T02:27:51.038Z,90.23
2019-02-09T02:30:24.867Z,89.61
2019-02-09T02:32:55.424Z,89.27
2019-02-09T02:35:25.391Z,89.09
2019-02-09T02:37:55.425Z,88.73
2019-02-09T02:40:26.170Z,88.04
2019-02-09T03:17:19.267Z,88.23
2019-02-09T03:19:49.169Z,87.88
2019-02-09T03:22:19.081Z,88.11
2019-02-09T03:24:49.068Z,87.79
2019-02-09T03:27:18.937Z,88.77
2019-02-09T03:50:56.931Z,69.42
2019-02-09T03:53:26.959Z,69.03
2019-02-09T03:55:57.664Z,68.19
2019-02-09T03:58:28.415Z,68.95
2019-02-09T04:00:58.317Z,70.34
2019-02-09T04:03:28.371Z,72.11
2019-02-09T04:05:58.421Z,73.42
2019-02-09T04:08:28.414Z,73.45
2019-02-09T04:14:24.599Z,74.33
2019-02-09T04:16:54.514Z,76.17
2019-02-09T04:19:24.591Z,76.95
2019-02-09T04:21:54.606Z,78.40
2019-02-09T04:24:24.483Z,79.25
2019-02-09T04:26:54.399Z,79.23
2019-02-09T04:29:24.639Z,79.39
2019-02-09T04:31:54.541Z,80.64
2019-02-09T04:34:24.475Z,81.57
2019-02-09T04:40:29.750Z,83.19
2019-02-09T04:42:59.966Z,82.71
2019-02-09T04:45:30.086Z,82.78
2019-02-09T04:48:00.835Z,83.65
2019-02-09T04:50:30.928Z,86.74
2019-02-09T04:53:01.057Z,90.87
2019-02-09T04:59:22.194Z,95.91
2019-02-09T05:01:52.095Z,98.18
2019-02-09T05:04:22.087Z,98.53
2019-02-09T05:06:52.056Z,98.63
2019-02-09T05:09:21.989Z,98.00
2019-02-09T05:11:53.973Z,97.13
2019-02-09T05:14:24.010Z,96.67
2019-02-09T05:16:53.905Z,96.54
2019-02-09T05:19:23.840Z,97.72
2019-02-09T05:21:53.737Z,98.21
2019-02-09T05:35:33.529Z,99.32
2019-02-09T05:48:09.654Z,100.00
2019-02-09T05:50:39.557Z,100.00
2019-02-09T05:59:51.758Z,100.00
2019-02-09T06:02:21.708Z,100.00
2019-02-09T06:04:51.987Z,100.00
2019-02-09T06:07:21.898Z,100.00
2019-02-09T06:09:52.347Z,100.00
2019-02-09T06:12:22.352Z,100.00
2019-02-09T06:14:52.326Z,100.00
2019-02-09T06:17:22.313Z,100.00
2019-02-09T06:19:52.234Z,100.00
2019-02-09T06:26:13.894Z,100.00
2019-02-09T06:28:43.798Z,100.00
2019-02-09T06:31:13.708Z,100.00
2019-02-09T06:33:43.765Z,100.00
2019-02-09T06:36:13.754Z,100.00
2019-02-09T06:38:43.654Z,100.00
2019-02-09T06:41:13.600Z,100.00
2019-02-09T06:43:43.969Z,100.00
2019-02-09T06:46:13.915Z,100.00
2019-02-09T06:48:43.999Z,100.00
2019-02-09T06:55:05.676Z,100.00
2019-02-09T06:57:35.581Z,100.00
2019-02-09T07:00:07.874Z,100.00
2019-02-09T07:02:37.914Z,100.00
2019-02-09T07:05:12.050Z,100.00
2019-02-09T07:07:42.570Z,99.16
2019-02-09T07:10:15.378Z,99.02
2019-02-09T07:12:45.357Z,99.05
2019-02-09T07:15:19.946Z,98.55
2019-02-09T07:21:34.836Z,99.40
2019-02-09T07:24:05.399Z,98.36
2019-02-09T07:26:35.491Z,98.27
2019-02-09T07:29:06.070Z,99.71
2019-02-09T07:31:36.054Z,99.67
2019-02-09T07:34:06.071Z,99.83
2019-02-09T07:36:36.090Z,98.23
2019-02-09T07:39:09.876Z,96.96
2019-02-09T07:41:39.827Z,96.73
2019-02-09T07:44:09.782Z,96.03
2019-02-09T07:46:40.546Z,95.00
2019-02-09T07:49:10.577Z,94.50
2019-02-09T07:51:40.478Z,95.35
2019-02-09T07:54:10.384Z,94.32
2019-02-09T07:56:40.290Z,94.48
2019-02-09T07:59:10.923Z,94.24
2019-02-09T08:01:40.859Z,92.53
2019-02-09T08:04:10.793Z,92.66
2019-02-09T08:06:41.391Z,93.20
2019-02-09T08:09:13.257Z,94.78
2019-02-09T08:11:43.307Z,94.43
2019-02-09T08:14:13.224Z,95.46
2019-02-09T08:16:43.603Z,95.28
2019-02-09T08:23:05.199Z,94.55
2019-02-09T08:25:36.348Z,96.02
2019-02-09T08:28:09.207Z,95.23
2019-02-09T08:30:42.587Z,94.72
2019-02-09T08:33:12.747Z,93.68
2019-02-09T08:35:42.810Z,93.29
2019-02-09T08:38:14.406Z,93.19
2019-02-09T08:40:44.509Z,92.54
2019-02-09T08:43:14.734Z,93.11
2019-02-09T08:45:44.770Z,92.16
2019-02-09T08:48:14.844Z,91.93
2019-02-09T08:50:49.940Z,90.67
2019-02-09T08:53:19.997Z,90.28
2019-02-09T08:55:50.117Z,89.20
2019-02-09T08:58:20.105Z,88.40
2019-02-09T09:00:50.082Z,86.93
2019-02-09T09:03:20.067Z,86.12
2019-02-09T09:05:50.199Z,84.33
2019-02-09T09:08:20.566Z,83.70
2019-02-09T09:10:50.563Z,83.50
2019-02-09T09:13:20.546Z,81.98
2019-02-09T09:15:53.999Z,79.12
2019-02-09T09:18:24.066Z,79.54
2019-02-09T09:20:57.800Z,80.27
2019-02-09T09:23:28.032Z,79.30
2019-02-09T09:25:58.095Z,77.32
2019-02-09T09:28:28.074Z,75.63
2019-02-09T09:30:58.386Z,74.70
2019-02-09T09:33:28.378Z,76.09
2019-02-09T09:35:58.431Z,77.13
2019-02-09T09:38:28.436Z,76.54
2019-02-09T09:40:58.665Z,74.76
2019-02-09T09:43:28.783Z,77.32
2019-02-09T09:45:58.870Z,78.00
2019-02-09T09:48:28.905Z,79.10
2019-02-09T09:50:59.042Z,79.27
2019-02-09T09:53:29.020Z,79.72
2019-02-09T09:55:59.101Z,77.93
2019-02-09T09:58:29.064Z,75.53
2019-02-09T10:00:59.068Z,74.25
2019-02-09T10:03:29.909Z,76.54
2019-02-09T10:06:00.227Z,76.04
2019-02-09T10:08:30.155Z,75.81
2019-02-09T10:11:00.070Z,75.99
2019-02-09T10:13:30.003Z,76.75
2019-02-09T10:16:00.246Z,79.29
2019-02-09T10:18:30.168Z,79.88
2019-02-09T10:21:00.160Z,79.08
2019-02-09T10:23:30.138Z,80.47
2019-02-09T10:29:33.348Z,88.61
2019-02-09T10:32:03.280Z,93.28
2019-02-09T10:48:15.005Z,81.40
2019-02-09T10:50:46.451Z,80.44
2019-02-09T10:53:16.711Z,78.41
2019-02-09T10:55:47.482Z,76.46
2019-02-09T11:02:09.075Z,76.81
2019-02-09T11:22:37.231Z,72.70
2019-02-09T11:25:09.330Z,70.52
2019-02-09T11:27:39.367Z,70.52
2019-02-09T11:30:16.817Z,67.90
2019-02-09T11:32:46.742Z,67.82
2019-02-09T11:35:16.888Z,67.99
2019-02-09T11:37:47.069Z,65.63
2019-02-09T11:40:19.052Z,68.43
2019-02-09T11:42:49.704Z,66.60
2019-02-09T11:45:26.097Z,66.50
2019-02-09T11:47:56.251Z,68.08
2019-02-09T11:50:26.655Z,67.49
2019-02-09T11:52:56.897Z,67.23
2019-02-09T11:55:26.828Z,65.85
2019-02-09T11:57:56.981Z,67.31
2019-02-09T12:00:36.428Z,66.04
2019-02-09T12:03:14.694Z,66.09
2019-02-09T12:05:38.660Z,67.25
2019-02-09T12:08:09.110Z,66.75
2019-02-09T12:10:39.210Z,67.01
2019-02-09T12:13:09.636Z,69.46
2019-02-09T12:15:39.910Z,71.81
2019-02-09T12:18:10.424Z,73.07
2019-02-09T12:20:40.467Z,73.01
2019-02-09T12:23:10.481Z,73.71
2019-02-09T12:25:40.864Z,74.43
2019-02-09T12:28:11.116Z,72.40
2019-02-09T12:30:41.881Z,71.23
2019-02-09T12:33:11.958Z,69.53
2019-02-09T12:35:43.899Z,70.24
2019-02-09T12:38:14.130Z,69.03
2019-02-09T12:40:44.069Z,66.95
2019-02-09T12:46:58.832Z,65.49
2019-02-09T12:49:28.813Z,64.23
2019-02-09T12:51:58.896Z,62.16
2019-02-09T12:54:28.833Z,63.48
2019-02-09T12:56:58.760Z,64.95
2019-02-09T12:59:28.719Z,64.10
2019-02-09T13:01:58.715Z,64.87
2019-02-09T13:04:28.637Z,65.55
2019-02-09T13:06:58.547Z,66.40
2019-02-09T13:09:28.473Z,66.22
2019-02-09T13:11:58.387Z,66.12
2019-02-09T13:14:29.212Z,64.65
2019-02-09T13:16:59.146Z,64.37
2019-02-09T13:19:29.067Z,64.53
2019-02-09T13:21:58.989Z,63.65
2019-02-09T13:24:28.900Z,63.31
2019-02-09T13:26:58.966Z,65.42
2019-02-09T13:29:28.883Z,64.83
2019-02-09T13:31:58.871Z,64.95
2019-02-09T13:34:28.839Z,65.88
2019-02-09T13:36:58.836Z,66.87
2019-02-09T13:39:28.750Z,67.18
2019-02-09T13:41:58.848Z,69.19
2019-02-09T13:44:29.019Z,71.02
2019-02-09T13:46:58.961Z,70.79
2019-02-09T13:49:29.005Z,70.54
2019-02-09T13:51:58.917Z,70.71
2019-02-09T13:54:28.841Z,71.34
2019-02-09T13:56:58.741Z,71.29
2019-02-09T13:59:28.668Z,71.25
2019-02-09T14:01:58.595Z,70.73
2019-02-09T14:04:28.528Z,71.11
2019-02-09T14:13:33.520Z,71.88
2019-02-09T14:23:02.771Z,73.65
2019-02-09T14:25:33.007Z,73.54
2019-02-09T14:34:24.883Z,75.30
2019-02-09T14:36:54.930Z,74.87
2019-02-09T14:39:24.927Z,74.75
2019-02-09T14:41:54.835Z,74.90
2019-02-09T14:44:24.815Z,75.26
2019-02-09T14:46:54.812Z,73.40
2019-02-09T14:49:24.708Z,73.03
2019-02-09T14:51:54.986Z,72.97
2019-02-09T14:54:24.892Z,73.46
2019-02-09T14:56:55.188Z,72.19
2019-02-09T14:59:25.232Z,71.38
2019-02-09T15:01:55.266Z,71.56
2019-02-09T15:04:25.340Z,72.39
2019-02-09T15:06:55.268Z,71.36
2019-02-09T15:09:25.562Z,70.94
2019-02-09T15:11:56.197Z,71.09
2019-02-09T15:14:26.847Z,70.44
2019-02-09T15:17:05.049Z,70.57
2019-02-09T15:19:37.490Z,70.71
2019-02-09T15:22:08.153Z,69.32
2019-02-09T15:24:38.074Z,69.95
2019-02-09T15:30:59.845Z,70.11
2019-02-09T15:33:29.844Z,70.95
2019-02-09T15:35:59.753Z,71.65
2019-02-09T15:38:29.823Z,72.53
2019-02-09T15:40:59.875Z,72.89
2019-02-09T15:43:30.145Z,73.44
2019-02-09T15:46:00.167Z,73.47
2019-02-09T15:48:30.152Z,74.13
2019-02-09T15:51:00.781Z,74.04
2019-02-09T15:53:31.479Z,74.39
2019-02-09T15:56:01.635Z,74.31
2019-02-09T15:58:31.551Z,74.06
2019-02-09T16:01:01.531Z,74.30
2019-02-09T16:03:32.036Z,74.72
2019-02-09T16:06:02.011Z,75.15
2019-02-09T16:08:32.686Z,75.28
2019-02-09T16:11:02.680Z,75.59
2019-02-09T16:13:33.323Z,75.54
2019-02-09T16:16:03.414Z,74.78
2019-02-09T16:18:33.320Z,75.17
2019-02-09T16:27:10.877Z,74.66
2019-02-09T16:29:40.831Z,75.24
2019-02-09T16:32:10.913Z,74.83
2019-02-09T16:34:40.893Z,74.88
2019-02-09T16:37:10.959Z,75.43
2019-02-09T16:39:41.197Z,75.87
2019-02-09T16:42:11.128Z,76.75
2019-02-09T16:44:41.126Z,77.22
2019-02-09T16:47:11.115Z,77.05
2019-02-09T16:49:41.053Z,76.65
2019-02-09T16:52:11.017Z,77.19
2019-02-09T16:54:40.961Z,75.96
2019-02-09T16:57:11.506Z,76.84
2019-02-09T17:00:53.924Z,76.21
2019-02-09T17:03:23.959Z,75.07
2019-02-09T17:05:53.908Z,73.51
2019-02-09T17:08:25.625Z,74.28
2019-02-09T17:10:55.674Z,74.13
2019-02-09T17:13:25.748Z,74.82
2019-02-09T17:15:55.808Z,75.02
2019-02-09T17:18:25.769Z,74.70
2019-02-09T17:20:55.691Z,73.63
2019-02-09T17:23:26.436Z,74.22
2019-02-09T17:25:56.391Z,72.50
2019-02-09T17:28:26.415Z,71.69
2019-02-09T17:30:56.943Z,72.53
2019-02-09T17:33:26.894Z,72.14
2019-02-09T17:35:56.910Z,71.72
2019-02-09T17:38:26.843Z,69.57
2019-02-09T17:40:56.758Z,69.20
2019-02-09T17:43:27.319Z,68.95
2019-02-09T17:46:17.498Z,67.99
2019-02-09T17:48:48.099Z,68.96
2019-02-09T17:51:18.228Z,69.81
2019-02-09T17:53:48.555Z,69.42
2019-02-09T17:56:18.472Z,69.98
2019-02-09T17:58:48.388Z,70.77
2019-02-09T18:01:18.299Z,71.81
2019-02-09T18:03:48.563Z,71.52
2019-02-09T18:06:18.485Z,71.84
2019-02-09T18:08:48.555Z,72.67
2019-02-09T18:11:18.599Z,72.94
2019-02-09T18:13:48.526Z,73.58
2019-02-09T18:16:18.435Z,72.51
2019-02-09T18:19:01.090Z,72.84
2019-02-09T18:21:34.410Z,73.26
2019-02-09T18:24:04.445Z,74.33
2019-02-09T18:26:34.365Z,74.42
2019-02-09T18:29:04.352Z,74.67
2019-02-09T18:35:19.440Z,75.78
2019-02-09T18:37:49.509Z,75.02
2019-02-09T18:46:46.084Z,76.33
2019-02-09T18:49:15.972Z,75.05
2019-02-09T18:51:46.681Z,74.53
2019-02-09T18:54:16.849Z,75.34
2019-02-09T18:56:46.874Z,75.50
2019-02-09T18:59:16.864Z,76.36
2019-02-09T19:01:46.898Z,76.45
2019-02-09T19:04:16.918Z,76.19
2019-02-09T19:06:47.169Z,77.24
2019-02-09T19:09:17.299Z,78.10
2019-02-09T19:11:47.283Z,77.98
2019-02-09T19:14:17.514Z,78.67
2019-02-09T19:16:47.526Z,79.33
2019-02-09T19:19:17.537Z,80.02
2019-02-09T19:21:49.454Z,80.35
2019-02-09T19:24:19.510Z,80.98
2019-02-09T19:26:49.507Z,81.42
2019-02-09T19:29:19.668Z,81.94
2019-02-09T19:31:49.592Z,82.23
2019-02-09T19:34:19.705Z,81.88
2019-02-09T19:36:50.047Z,81.20
2019-02-09T19:39:19.988Z,81.84
2019-02-09T19:41:49.976Z,82.91
2019-02-09T19:44:19.922Z,83.61
2019-02-09T19:46:50.551Z,83.74
2019-02-09T19:49:20.474Z,82.65
2019-02-09T19:51:50.400Z,82.89
2019-02-09T19:54:20.314Z,83.51
2019-02-09T19:56:50.234Z,84.13
2019-02-09T19:59:21.162Z,83.87
2019-02-09T20:05:42.629Z,84.18
2019-02-09T20:08:12.861Z,84.79
2019-02-09T20:10:43.866Z,85.70
2019-02-09T20:13:14.110Z,86.89
2019-02-09T20:15:44.342Z,87.06
2019-02-09T20:18:14.378Z,86.65
2019-02-09T20:20:47.294Z,86.57
2019-02-09T20:23:16.175Z,87.16
2019-02-09T20:25:47.035Z,88.14
2019-02-09T20:28:18.039Z,88.13
2019-02-09T20:30:48.228Z,88.31
2019-02-09T20:33:18.258Z,88.41
2019-02-09T20:35:48.520Z,88.90
2019-02-09T20:38:18.587Z,89.74
2019-02-09T20:40:56.631Z,89.82
2019-02-09T20:43:26.639Z,90.40
2019-02-09T20:45:56.737Z,90.52
2019-02-09T20:48:26.847Z,90.58
2019-02-09T20:50:56.808Z,91.02
2019-02-09T20:53:27.123Z,91.29
2019-02-09T20:55:57.385Z,91.76
2019-02-09T20:58:28.010Z,92.65
2019-02-09T21:00:59.254Z,93.08
2019-02-09T21:03:29.913Z,93.25
2019-02-09T21:06:00.236Z,93.83
2019-02-09T21:08:30.338Z,94.42
2019-02-09T21:12:13.188Z,94.92
2019-02-09T21:21:24.492Z,96.75
2019-02-09T21:33:31.829Z,99.92
2019-02-09T21:36:01.780Z,98.74
2019-02-09T21:38:32.223Z,98.27
2019-02-09T21:41:02.239Z,98.76
2019-02-09T21:47:23.891Z,97.33
2019-02-09T21:49:53.977Z,97.02
2019-02-09T21:52:24.979Z,97.26
2019-02-09T21:54:55.170Z,97.56
2019-02-09T21:57:25.373Z,96.81
2019-02-09T21:59:55.803Z,96.46
2019-02-09T22:02:25.949Z,96.43
2019-02-09T22:08:47.981Z,96.38
2019-02-09T22:11:19.598Z,96.33
2019-02-09T22:13:50.305Z,96.13
2019-02-09T22:16:21.017Z,96.19
2019-02-09T22:18:51.682Z,96.40
2019-02-09T22:21:22.089Z,96.47
2019-02-09T22:23:52.062Z,96.21
2019-02-09T22:26:23.137Z,96.01
2019-02-09T22:28:54.094Z,96.16
2019-02-09T22:33:59.526Z,96.72
2019-02-09T22:36:36.956Z,96.78
2019-02-09T22:42:53.276Z,96.71
2019-02-09T22:45:23.538Z,97.19
2019-02-09T22:47:55.250Z,97.53
2019-02-09T22:50:34.647Z,97.88
2019-02-09T22:53:05.438Z,98.12
2019-02-09T22:55:35.569Z,98.02
2019-02-09T22:58:07.647Z,98.18
2019-02-09T23:00:59.502Z,98.06
2019-02-09T23:03:56.430Z,97.87
2019-02-09T23:06:57.333Z,97.60
2019-02-09T23:09:30.159Z,98.63
2019-02-09T23:12:00.141Z,99.03
2019-02-09T23:14:30.150Z,99.05
2019-02-09T23:17:00.279Z,99.00
2019-02-09T23:19:30.460Z,98.83
2019-02-09T23:22:00.521Z,99.06
2019-02-09T23:24:30.541Z,99.14
2019-02-09T23:27:00.589Z,99.29
2019-02-09T23:29:30.484Z,99.81
2019-02-09T23:32:00.524Z,100.00
2019-02-09T23:34:30.503Z,100.00
2019-02-09T23:37:00.508Z,99.26
2019-02-09T23:39:30.487Z,99.26
2019-02-09T23:43:13.313Z,99.03
2019-02-09T23:45:43.324Z,99.52
2019-02-09T23:48:13.412Z,99.90
2019-02-09T23:50:43.995Z,100.00
2019-02-09T23:53:13.950Z,100.00
2019-02-09T23:55:43.871Z,100.00
2019-02-09T23:58:13.866Z,100.00
